Time;durP1;ratioP1;P1;durP2;ratioP2;P2;SDS_P1;SDS_P2;PMS_P1;PMS_P2;Temp;Humidity;BMP_temperature;BMP_pressure;BME280_temperature;BME280_humidity;BME280_pressure;Samples;Min_cycle;Max_cycle;Signal;HPM_P1;HPM_P2
2023/08/26 00:03:17;;;;;;;6.13;5.10;;;22.00;96.20;;;;;;10362677;28;20466;-64
2023/08/26 00:08:18;;;;;;;6.77;5.03;;;22.00;96.10;;;;;;10351395;28;20484;-65
2023/08/26 00:13:18;;;;;;;6.95;5.15;;;22.00;96.00;;;;;;10360407;28;20781;-65
2023/08/26 00:18:19;;;;;;;6.60;5.38;;;21.90;96.00;;;;;;10342933;28;20773;-65
2023/08/26 00:23:20;;;;;;;7.70;5.60;;;21.90;96.00;;;;;;10362813;28;20447;-66
2023/08/26 00:28:20;;;;;;;5.90;4.95;;;21.90;95.90;;;;;;10361254;28;20405;-66
2023/08/26 00:33:21;;;;;;;8.00;4.90;;;22.00;95.90;;;;;;10359005;28;20419;-65
2023/08/26 00:38:22;;;;;;;6.00;5.20;;;21.90;95.80;;;;;;10344067;28;20401;-65
2023/08/26 00:43:25;;;;;;;5.95;4.80;;;21.90;95.80;;;;;;10362190;28;20412;-65
2023/08/26 00:48:26;;;;;;;6.20;4.90;;;21.80;95.80;;;;;;10361730;28;20401;-65
2023/08/26 00:53:27;;;;;;;7.37;4.73;;;21.80;95.70;;;;;;10358927;28;20412;-65
2023/08/26 00:58:29;;;;;;;7.40;5.00;;;21.80;95.70;;;;;;10358911;28;20446;-65
2023/08/26 01:03:30;;;;;;;6.82;4.97;;;21.80;95.70;;;;;;10356989;28;20412;-65
2023/08/26 01:08:32;;;;;;;5.15;4.53;;;21.70;95.60;;;;;;10357519;28;20875;-64
2023/08/26 01:13:50;;;;;;;6.85;4.50;;;21.70;95.60;;;;;;10356649;28;20506;-64
2023/08/26 01:18:51;;;;;;;5.80;4.50;;;21.70;95.60;;;;;;10359126;28;20415;-62
2023/08/26 01:23:53;;;;;;;6.00;4.80;;;21.70;95.60;;;;;;10358413;28;20393;-66
2023/08/26 01:28:53;;;;;;;6.00;4.57;;;21.70;95.60;;;;;;10355455;28;20459;-65
2023/08/26 01:34:20;;;;;;;6.30;4.57;;;21.70;95.50;;;;;;10357812;28;20827;-64
2023/08/26 01:39:21;;;;;;;5.90;4.60;;;21.60;95.50;;;;;;10348334;28;20397;-66
2023/08/26 01:44:22;;;;;;;5.68;4.57;;;21.60;95.50;;;;;;10357794;28;20916;-64
2023/08/26 01:49:23;;;;;;;6.03;4.63;;;21.60;95.40;;;;;;10355822;28;20444;-65
2023/08/26 01:54:24;;;;;;;5.95;4.45;;;21.60;95.40;;;;;;10354506;28;20408;-65
2023/08/26 01:59:25;;;;;;;6.47;4.50;;;21.60;95.40;;;;;;10356742;28;20405;-65
2023/08/26 02:04:25;;;;;;;5.20;4.43;;;21.60;95.40;;;;;;10355275;28;20888;-65
2023/08/26 02:09:26;;;;;;;5.37;4.30;;;21.50;95.40;;;;;;10356095;28;20467;-64
2023/08/26 02:14:26;;;;;;;6.07;4.47;;;21.50;95.60;;;;;;10352706;28;20419;-65
2023/08/26 02:19:27;;;;;;;5.50;4.20;;;21.50;95.30;;;;;;10357020;28;21060;-64
2023/08/26 02:24:29;;;;;;;5.35;4.10;;;21.50;95.30;;;;;;10358978;28;20408;-65
2023/08/26 02:29:30;;;;;;;5.80;4.40;;;21.60;95.30;;;;;;10358906;28;20730;-66
2023/08/26 02:34:31;;;;;;;5.78;4.60;;;21.40;95.30;;;;;;10357672;28;20408;-65
2023/08/26 02:39:32;;;;;;;5.00;4.30;;;21.40;95.30;;;;;;10354110;28;20768;-63
2023/08/26 02:44:33;;;;;;;5.43;4.22;;;21.40;95.30;;;;;;10358590;28;20408;-64
2023/08/26 02:49:33;;;;;;;5.70;4.70;;;21.40;95.20;;;;;;10343156;28;20499;-65
2023/08/26 02:54:34;;;;;;;4.93;4.00;;;21.40;95.20;;;;;;10349013;28;20409;-65
2023/08/26 02:59:35;;;;;;;4.67;4.17;;;21.30;95.20;;;;;;10363461;28;20843;-65
2023/08/26 03:04:35;;;;;;;5.90;4.10;;;21.30;95.20;;;;;;10364339;28;20415;-65
2023/08/26 03:09:36;;;;;;;5.30;4.20;;;21.30;95.10;;;;;;10362495;28;20831;-66
2023/08/26 03:14:37;;;;;;;5.43;4.10;;;21.30;95.10;;;;;;10349123;28;20424;-64
2023/08/26 03:19:37;;;;;;;5.67;4.37;;;21.30;95.10;;;;;;10362931;28;20405;-65
2023/08/26 03:24:38;;;;;;;4.80;4.30;;;21.30;95.10;;;;;;10346014;28;20405;-65
2023/08/26 03:29:39;;;;;;;4.80;4.15;;;21.20;95.10;;;;;;10360873;28;20496;-65
2023/08/26 03:34:40;;;;;;;5.13;4.20;;;21.20;95.10;;;;;;10361264;28;20416;-65
2023/08/26 03:39:41;;;;;;;5.50;4.20;;;21.20;95.00;;;;;;10359439;28;20396;-64
2023/08/26 03:44:42;;;;;;;4.63;3.90;;;21.20;95.00;;;;;;10337011;28;20424;-65
2023/08/26 03:49:42;;;;;;;5.00;4.10;;;21.10;95.00;;;;;;10347451;28;20424;-65
2023/08/26 03:54:43;;;;;;;6.27;4.30;;;21.10;95.00;;;;;;10346656;28;20416;-65
2023/08/26 03:59:44;;;;;;;6.00;4.23;;;21.20;95.00;;;;;;10357390;28;20400;-64
2023/08/26 04:04:44;;;;;;;5.20;4.28;;;21.10;94.90;;;;;;10360157;28;20411;-64
2023/08/26 04:09:45;;;;;;;5.47;4.20;;;21.10;94.90;;;;;;10363472;28;20409;-65
2023/08/26 04:14:45;;;;;;;5.73;4.30;;;21.10;94.90;;;;;;10363021;28;20538;-65
2023/08/26 04:19:46;;;;;;;5.60;4.20;;;21.10;94.90;;;;;;10357930;28;20400;-65
2023/08/26 04:24:47;;;;;;;6.85;4.43;;;21.00;94.90;;;;;;10361950;28;20416;-65
2023/08/26 04:29:47;;;;;;;5.93;4.13;;;21.20;94.90;;;;;;10348027;28;20765;-64
2023/08/26 04:34:48;;;;;;;5.00;4.17;;;21.10;94.90;;;;;;10361090;28;20509;-65
2023/08/26 04:39:50;;;;;;;5.27;4.33;;;21.00;94.90;;;;;;10362699;28;20393;-66
2023/08/26 04:44:51;;;;;;;4.95;4.30;;;21.00;94.90;;;;;;10360506;28;20399;-65
2023/08/26 04:49:51;;;;;;;4.97;4.03;;;21.00;94.90;;;;;;10355899;28;20412;-64
2023/08/26 04:54:52;;;;;;;4.90;4.23;;;21.00;94.90;;;;;;10363417;28;20973;-66
2023/08/26 04:59:53;;;;;;;5.00;4.20;;;21.00;94.90;;;;;;10362238;28;20404;-64
2023/08/26 05:04:53;;;;;;;4.97;4.40;;;21.00;94.90;;;;;;10362048;28;20413;-66
2023/08/26 05:09:54;;;;;;;6.23;4.20;;;20.90;94.90;;;;;;10353136;28;20493;-65
2023/08/26 05:14:54;;;;;;;5.73;4.10;;;20.90;94.90;;;;;;10358931;28;20420;-65
2023/08/26 05:19:55;;;;;;;5.10;4.23;;;20.90;94.90;;;;;;10360068;28;20484;-65
2023/08/26 05:24:56;;;;;;;5.47;4.40;;;20.90;94.90;;;;;;10359737;28;20405;-64
2023/08/26 05:29:56;;;;;;;5.30;4.20;;;20.90;94.90;;;;;;10357663;28;20811;-66
2023/08/26 05:34:57;;;;;;;5.97;4.40;;;20.80;94.80;;;;;;10363975;28;20900;-65
2023/08/26 05:39:58;;;;;;;5.53;4.60;;;20.90;94.90;;;;;;10364130;28;20396;-66
2023/08/26 05:44:59;;;;;;;5.23;4.43;;;20.80;94.90;;;;;;10359795;28;20908;-66
2023/08/26 05:50:00;;;;;;;6.25;4.60;;;20.90;94.90;;;;;;10364404;28;20448;-66
2023/08/26 05:55:00;;;;;;;6.35;4.40;;;20.80;94.90;;;;;;10343789;28;20501;-65
2023/08/26 06:00:01;;;;;;;7.43;4.80;;;20.80;94.80;;;;;;10362140;28;20395;-66
2023/08/26 06:05:02;;;;;;;5.83;4.50;;;20.80;94.80;;;;;;10342031;28;20399;-65
2023/08/26 06:10:04;;;;;;;7.78;4.72;;;20.80;94.80;;;;;;10357089;28;20408;-65
2023/08/26 06:15:05;;;;;;;6.53;4.80;;;20.80;94.80;;;;;;10358982;28;20927;-65
2023/08/26 06:20:07;;;;;;;6.93;5.03;;;20.80;94.80;;;;;;10362929;28;20416;-65
2023/08/26 06:25:08;;;;;;;5.77;4.70;;;20.80;94.70;;;;;;10364871;28;20408;-65
2023/08/26 06:30:10;;;;;;;6.22;4.93;;;20.90;94.70;;;;;;10368959;28;20401;-66
2023/08/26 06:35:10;;;;;;;6.50;4.78;;;20.80;94.70;;;;;;10363362;28;20409;-65
2023/08/26 06:40:11;;;;;;;6.00;4.73;;;20.80;94.60;;;;;;10365517;28;20960;-66
2023/08/26 06:45:11;;;;;;;5.47;4.83;;;20.80;94.60;;;;;;10365259;28;20404;-64
2023/08/26 06:50:12;;;;;;;6.77;4.77;;;20.80;94.50;;;;;;10363548;28;20413;-69
2023/08/26 06:55:13;;;;;;;6.10;4.90;;;20.80;94.50;;;;;;10365679;28;20440;-65
2023/08/26 07:00:15;;;;;;;6.70;5.20;;;20.90;94.50;;;;;;10363589;28;20484;-65
2023/08/26 07:05:16;;;;;;;6.20;5.10;;;20.80;94.50;;;;;;10348076;28;20409;-65
2023/08/26 07:10:16;;;;;;;6.60;5.10;;;20.80;94.50;;;;;;10362864;28;20800;-65
2023/08/26 07:15:17;;;;;;;6.63;5.35;;;20.80;94.50;;;;;;10364251;28;20423;-65
2023/08/26 07:20:17;;;;;;;7.43;5.35;;;20.80;94.40;;;;;;10360661;28;20748;-65
2023/08/26 07:25:18;;;;;;;5.97;5.27;;;20.80;94.40;;;;;;10364758;28;20472;-66
2023/08/26 07:30:19;;;;;;;7.45;5.63;;;20.80;94.30;;;;;;10361768;28;20939;-65
2023/08/26 07:35:21;;;;;;;7.35;5.40;;;20.80;94.30;;;;;;10357701;28;20804;-66
2023/08/26 07:40:22;;;;;;;6.47;5.20;;;20.80;94.30;;;;;;10350137;28;20412;-65
2023/08/26 07:45:23;;;;;;;6.30;5.40;;;20.80;94.30;;;;;;10365220;28;20400;-65
2023/08/26 07:50:24;;;;;;;6.10;5.10;;;20.80;94.30;;;;;;10364646;28;20417;-66
2023/08/26 07:55:24;;;;;;;7.17;5.50;;;20.80;94.30;;;;;;10359076;28;20429;-64
2023/08/26 08:00:25;;;;;;;7.67;5.50;;;20.90;94.20;;;;;;10361234;28;20466;-65
2023/08/26 08:05:26;;;;;;;8.03;6.33;;;20.90;94.30;;;;;;10360009;28;20404;-66
2023/08/26 08:10:26;;;;;;;8.00;6.00;;;20.90;94.30;;;;;;10361197;28;20463;-66
2023/08/26 08:15:27;;;;;;;9.40;5.90;;;20.90;94.30;;;;;;10360020;28;20416;-66
2023/08/26 08:20:29;;;;;;;7.67;5.70;;;20.90;94.20;;;;;;10359410;28;20393;-65
2023/08/26 08:25:29;;;;;;;7.15;5.00;;;20.70;94.20;;;;;;10358948;28;21118;-65
2023/08/26 08:30:30;;;;;;;8.57;5.18;;;20.70;94.40;;;;;;10359486;28;20914;-66
2023/08/26 08:35:31;;;;;;;7.53;4.70;;;20.70;94.40;;;;;;10360920;28;20405;-64
2023/08/26 08:40:32;;;;;;;7.05;4.63;;;20.80;94.30;;;;;;10362342;28;20412;-65
2023/08/26 08:45:35;;;;;;;7.97;4.50;;;20.90;94.20;;;;;;10355012;28;20396;-65
2023/08/26 08:50:35;;;;;;;8.55;4.40;;;20.80;94.20;;;;;;10359304;28;20916;-64
2023/08/26 08:55:37;;;;;;;6.63;3.85;;;20.90;94.00;;;;;;10358792;28;20480;-65
2023/08/26 09:00:38;;;;;;;8.97;4.07;;;20.80;94.00;;;;;;10359362;28;20831;-66
2023/08/26 09:05:39;;;;;;;6.15;3.55;;;20.70;94.00;;;;;;10345417;28;20851;-66
2023/08/26 09:10:40;;;;;;;6.63;3.50;;;20.60;93.50;;;;;;10360042;28;20411;-65
2023/08/26 09:15:40;;;;;;;5.23;3.10;;;20.50;93.40;;;;;;10358646;28;20462;-65
2023/08/26 09:20:45;;;;;;;6.60;3.50;;;20.50;93.60;;;;;;10359065;28;20396;-64
2023/08/26 09:25:56;;;;;;;6.17;3.10;;;20.50;93.70;;;;;;10358635;28;20793;-65
2023/08/26 09:31:06;;;;;;;5.82;2.90;;;20.50;93.40;;;;;;10356559;28;20393;-64
2023/08/26 09:36:07;;;;;;;7.00;2.85;;;20.60;92.70;;;;;;10356324;28;20427;-66
2023/08/26 09:41:09;;;;;;;6.40;2.40;;;20.60;92.40;;;;;;10343411;28;20397;-66
2023/08/26 09:46:19;;;;;;;5.75;2.60;;;20.70;92.70;;;;;;10356837;28;20404;-65
2023/08/26 09:51:27;;;;;;;8.43;3.15;;;20.70;92.10;;;;;;10352901;28;20453;-66
2023/08/26 09:56:28;;;;;;;5.28;2.50;;;20.80;92.20;;;;;;10360557;28;20416;-64
2023/08/26 10:01:29;;;;;;;6.93;2.42;;;20.80;91.80;;;;;;10360697;28;20904;-66
2023/08/26 10:06:33;;;;;;;6.22;2.05;;;20.80;92.00;;;;;;10364909;28;20411;-66
2023/08/26 10:11:40;;;;;;;5.23;2.10;;;20.90;91.80;;;;;;10361551;28;20924;-65
2023/08/26 10:16:42;;;;;;;4.27;1.93;;;20.90;91.30;;;;;;10352774;28;20411;-65
2023/08/26 10:21:44;;;;;;;5.70;2.05;;;20.90;90.60;;;;;;10360521;28;20438;-65
2023/08/26 10:26:45;;;;;;;4.20;2.17;;;21.00;90.70;;;;;;10364969;28;20411;-65
2023/08/26 10:31:46;;;;;;;4.85;1.88;;;21.20;91.10;;;;;;10370925;28;20403;-65
2023/08/26 10:36:49;;;;;;;3.10;1.70;;;21.30;91.40;;;;;;10349319;28;20914;-64
2023/08/26 10:42:13;;;;;;;3.37;1.70;;;21.30;90.90;;;;;;10365939;28;20923;-64
2023/08/26 10:47:34;;;;;;;3.83;1.75;;;21.30;90.40;;;;;;10360840;28;20461;-66
2023/08/26 10:52:35;;;;;;;2.50;1.80;;;21.30;89.80;;;;;;10361330;28;20459;-65
2023/08/26 10:57:35;;;;;;;2.38;1.65;;;21.30;88.90;;;;;;10362412;28;20865;-65
2023/08/26 11:02:36;;;;;;;1.67;1.50;;;21.40;89.20;;;;;;10358688;28;20476;-65
2023/08/26 11:07:37;;;;;;;2.58;1.58;;;21.50;89.90;;;;;;10348461;28;20459;-65
2023/08/26 11:12:38;;;;;;;3.38;2.00;;;21.50;88.60;;;;;;10359925;28;20411;-65
2023/08/26 11:17:40;;;;;;;3.10;1.73;;;21.60;86.40;;;;;;10364937;28;20514;-65
2023/08/26 11:22:41;;;;;;;2.17;1.75;;;21.60;85.90;;;;;;10366914;28;20410;-65
2023/08/26 11:27:42;;;;;;;2.78;1.90;;;21.60;85.80;;;;;;10361005;28;20439;-64
2023/08/26 11:32:47;;;;;;;3.07;1.70;;;21.60;86.90;;;;;;10346301;28;20516;-65
2023/08/26 11:37:48;;;;;;;2.85;1.63;;;21.70;86.20;;;;;;10363458;28;20408;-65
2023/08/26 11:42:49;;;;;;;2.57;1.90;;;21.80;84.40;;;;;;10353728;28;20598;-65
2023/08/26 11:47:52;;;;;;;2.90;2.00;;;21.80;85.20;;;;;;10363209;28;20484;-66
2023/08/26 11:52:54;;;;;;;3.20;2.20;;;21.90;85.00;;;;;;10359274;28;20449;-65
2023/08/26 11:57:55;;;;;;;3.00;1.90;;;22.00;84.80;;;;;;10363312;28;20424;-65
2023/08/26 12:03:03;;;;;;;3.90;1.97;;;22.00;84.70;;;;;;10361194;28;20484;-65
2023/08/26 12:08:04;;;;;;;2.53;1.95;;;22.20;85.60;;;;;;10361478;28;20416;-64
2023/08/26 12:13:05;;;;;;;2.58;2.08;;;22.40;84.50;;;;;;10360544;28;20409;-65
2023/08/26 12:18:05;;;;;;;3.03;2.30;;;22.40;82.90;;;;;;10357885;28;20539;-66
2023/08/26 12:23:07;;;;;;;2.60;2.40;;;22.40;82.80;;;;;;10358090;28;20934;-66
2023/08/26 12:28:18;;;;;;;2.42;2.20;;;22.40;82.30;;;;;;10358175;28;20405;-65
2023/08/26 12:33:19;;;;;;;4.97;2.33;;;22.40;82.80;;;;;;10350347;28;20487;-66
2023/08/26 12:38:20;;;;;;;2.60;2.40;;;22.40;81.20;;;;;;10357582;28;20482;-64
2023/08/26 12:43:21;;;;;;;3.43;2.83;;;22.50;80.70;;;;;;10357224;28;20401;-66
2023/08/26 12:48:21;;;;;;;3.43;3.13;;;22.50;81.10;;;;;;10363530;28;20396;-65
2023/08/26 12:53:22;;;;;;;3.40;2.97;;;22.60;80.60;;;;;;10362982;28;20792;-65
2023/08/26 12:58:26;;;;;;;4.55;3.30;;;22.50;82.60;;;;;;10356720;28;20671;-66
2023/08/26 13:03:27;;;;;;;3.33;2.70;;;22.40;82.00;;;;;;10355982;28;20698;-66
2023/08/26 13:08:27;;;;;;;3.45;2.85;;;22.30;81.60;;;;;;10356620;28;20408;-64
2023/08/26 13:13:28;;;;;;;3.60;2.60;;;22.30;82.10;;;;;;10364556;28;20413;-67
2023/08/26 13:18:29;;;;;;;3.30;2.50;;;22.50;82.00;;;;;;10358309;28;20411;-67
2023/08/26 13:23:29;;;;;;;2.40;2.20;;;22.80;80.80;;;;;;10356621;28;20406;-67
2023/08/26 13:28:30;;;;;;;3.20;2.28;;;23.00;80.00;;;;;;10346650;28;20779;-67
2023/08/26 13:33:30;;;;;;;3.17;2.13;;;23.10;79.30;;;;;;10359182;28;20442;-68
2023/08/26 13:38:31;;;;;;;3.97;2.23;;;23.30;79.00;;;;;;10362236;28;20808;-67
2023/08/26 13:43:32;;;;;;;3.00;2.10;;;23.30;80.00;;;;;;10348035;28;20492;-68
2023/08/26 13:48:32;;;;;;;4.50;2.27;;;23.20;80.70;;;;;;10361826;28;20907;-66
2023/08/26 13:53:33;;;;;;;3.40;2.30;;;23.00;80.90;;;;;;10360054;28;20459;-67
2023/08/26 13:58:34;;;;;;;1.87;1.40;;;22.70;81.90;;;;;;10359896;28;20415;-66
2023/08/26 14:03:34;;;;;;;3.37;1.40;;;22.40;81.40;;;;;;10360996;28;20887;-64
2023/08/26 14:08:35;;;;;;;2.27;1.10;;;22.20;83.40;;;;;;10361636;28;20408;-65
2023/08/26 14:13:35;;;;;;;1.70;1.43;;;22.10;85.20;;;;;;10360753;28;20449;-63
2023/08/26 14:18:36;;;;;;;2.50;1.40;;;22.10;85.80;;;;;;10355874;28;20404;-64
2023/08/26 14:23:36;;;;;;;1.97;1.57;;;22.10;86.40;;;;;;10357451;28;20867;-65
2023/08/26 14:28:37;;;;;;;2.43;1.40;;;22.20;87.00;;;;;;10346747;28;20407;-64
2023/08/26 14:33:39;;;;;;;2.03;1.40;;;22.20;87.30;;;;;;10355838;28;20459;-64
2023/08/26 14:38:44;;;;;;;2.83;1.52;;;22.20;87.30;;;;;;10363819;28;20451;-65
2023/08/26 14:43:45;;;;;;;1.97;1.57;;;22.30;87.60;;;;;;10349628;28;20408;-65
2023/08/26 14:48:46;;;;;;;2.80;1.58;;;22.30;88.10;;;;;;10355983;28;20407;-69
2023/08/26 14:53:46;;;;;;;1.70;1.60;;;22.30;88.30;;;;;;10363509;28;20491;-66
2023/08/26 14:58:49;;;;;;;2.50;1.80;;;22.30;88.80;;;;;;10363789;28;21621;-66
2023/08/26 15:03:49;;;;;;;2.70;1.90;;;22.30;89.20;;;;;;10350577;28;20416;-65
2023/08/26 15:08:51;;;;;;;2.90;1.90;;;22.30;89.30;;;;;;10348676;28;20508;-64
2023/08/26 15:13:52;;;;;;;2.78;1.80;;;22.40;89.60;;;;;;10364431;28;20559;-65
2023/08/26 15:18:52;;;;;;;3.92;2.00;;;22.50;89.80;;;;;;10356504;28;20466;-66
2023/08/26 15:23:53;;;;;;;3.10;1.73;;;22.60;89.90;;;;;;10360931;28;20927;-66
2023/08/26 15:28:54;;;;;;;3.00;2.30;;;22.60;90.00;;;;;;10362937;28;20408;-66
2023/08/26 15:33:54;;;;;;;2.83;2.20;;;22.60;90.10;;;;;;10359523;28;20805;-66
2023/08/26 15:38:55;;;;;;;2.90;2.20;;;22.60;90.30;;;;;;10357200;28;20416;-66
2023/08/26 15:43:55;;;;;;;2.90;2.00;;;22.50;90.50;;;;;;10361292;28;20400;-67
2023/08/26 15:48:56;;;;;;;2.77;2.13;;;22.50;90.70;;;;;;10362609;28;20412;-66
2023/08/26 15:53:57;;;;;;;3.07;2.20;;;22.50;90.80;;;;;;10358678;28;20416;-67
2023/08/26 15:58:58;;;;;;;2.57;2.17;;;22.50;90.90;;;;;;10362000;28;20811;-67
2023/08/26 16:03:59;;;;;;;2.50;2.30;;;22.50;91.00;;;;;;10357661;28;20477;-66
2023/08/26 16:09:00;;;;;;;3.22;2.13;;;22.40;91.00;;;;;;10360297;28;20446;-66
2023/08/26 16:14:01;;;;;;;3.23;2.30;;;22.40;91.10;;;;;;10361322;28;20420;-66
2023/08/26 16:19:01;;;;;;;3.67;2.40;;;22.40;91.50;;;;;;10358980;28;20425;-67
2023/08/26 16:24:03;;;;;;;4.27;3.30;;;22.40;91.20;;;;;;10363070;28;20911;-65
2023/08/26 16:29:04;;;;;;;5.43;3.45;;;22.30;91.50;;;;;;10360713;28;20397;-66
2023/08/26 16:34:05;;;;;;;4.88;2.78;;;22.30;91.80;;;;;;10358511;28;20987;-64
2023/08/26 16:39:05;;;;;;;3.35;2.80;;;22.20;91.80;;;;;;10346394;28;20392;-65
2023/08/26 16:44:06;;;;;;;2.95;2.40;;;22.20;91.80;;;;;;10360024;28;20408;-65
2023/08/26 16:49:07;;;;;;;4.50;2.90;;;22.30;91.80;;;;;;10354735;28;20608;-64
2023/08/26 16:54:07;;;;;;;4.55;2.95;;;22.30;92.00;;;;;;10351925;28;20503;-64
2023/08/26 16:59:08;;;;;;;5.57;3.22;;;22.20;92.00;;;;;;10360050;28;20775;-65
2023/08/26 17:04:15;;;;;;;3.58;2.90;;;22.20;91.90;;;;;;10341941;28;20466;-65
2023/08/26 17:09:15;;;;;;;3.67;2.90;;;22.10;92.10;;;;;;10355699;28;20474;-66
2023/08/26 17:14:16;;;;;;;4.00;2.90;;;22.00;92.30;;;;;;10358387;28;20791;-65
2023/08/26 17:19:17;;;;;;;3.97;3.20;;;21.90;92.70;;;;;;10356771;28;20397;-66
2023/08/26 17:24:17;;;;;;;5.47;4.03;;;21.70;92.90;;;;;;10359103;28;20401;-64
2023/08/26 17:29:18;;;;;;;21.97;13.93;;;21.60;93.30;;;;;;10347727;28;20411;-66
2023/08/26 17:34:18;;;;;;;27.93;20.03;;;21.40;93.70;;;;;;10356396;28;20927;-64
2023/08/26 17:39:19;;;;;;;20.87;14.97;;;21.30;93.80;;;;;;10360451;28;20393;-67
2023/08/26 17:44:19;;;;;;;19.17;13.23;;;21.20;94.40;;;;;;10361643;28;20420;-64
2023/08/26 17:49:25;;;;;;;13.93;9.87;;;21.20;94.40;;;;;;10357537;28;20450;-65
2023/08/26 17:54:26;;;;;;;7.05;5.45;;;21.20;94.50;;;;;;10358819;28;20409;-64
2023/08/26 17:59:26;;;;;;;7.45;4.78;;;21.10;95.00;;;;;;10359146;28;20424;-65
2023/08/26 18:04:27;;;;;;;5.78;4.30;;;21.10;94.90;;;;;;10349626;28;20494;-64
2023/08/26 18:09:27;;;;;;;5.10;4.00;;;21.20;94.60;;;;;;10359378;28;20768;-65
2023/08/26 18:14:28;;;;;;;6.83;4.23;;;21.20;94.50;;;;;;10359573;28;20428;-64
2023/08/26 18:19:29;;;;;;;6.10;3.93;;;21.30;94.40;;;;;;10362132;28;20393;-64
2023/08/26 18:24:29;;;;;;;4.87;3.80;;;21.40;94.30;;;;;;10365673;28;20404;-64
2023/08/26 18:29:39;;;;;;;6.47;4.10;;;21.40;94.20;;;;;;10363909;28;20404;-65
2023/08/26 18:34:41;;;;;;;4.72;3.90;;;21.40;94.10;;;;;;10361883;28;20507;-64
2023/08/26 18:39:42;;;;;;;4.72;3.72;;;21.40;94.00;;;;;;10362270;28;20397;-65
2023/08/26 18:44:45;;;;;;;4.32;3.60;;;21.50;93.90;;;;;;10363577;28;20409;-65
2023/08/26 18:49:45;;;;;;;5.13;3.90;;;21.40;93.80;;;;;;10359555;28;20420;-65
2023/08/26 18:54:46;;;;;;;5.22;3.50;;;21.50;93.80;;;;;;10359806;28;20478;-65
2023/08/26 18:59:47;;;;;;;5.27;3.83;;;21.40;93.70;;;;;;10342430;28;20393;-66
2023/08/26 19:04:47;;;;;;;4.30;3.67;;;21.40;93.60;;;;;;10359611;28;20410;-65
2023/08/26 19:09:48;;;;;;;4.40;3.73;;;21.50;93.60;;;;;;10352945;28;20414;-65
2023/08/26 19:14:49;;;;;;;4.17;3.33;;;21.40;93.50;;;;;;10358371;28;20503;-65
2023/08/26 19:19:49;;;;;;;4.07;3.50;;;21.40;93.50;;;;;;10353275;28;20409;-66
2023/08/26 19:24:52;;;;;;;3.87;3.30;;;21.40;93.40;;;;;;10348242;28;20792;-64
2023/08/26 19:29:53;;;;;;;4.03;3.40;;;21.40;93.40;;;;;;10337968;28;20404;-66
2023/08/26 19:34:53;;;;;;;4.10;3.20;;;21.40;93.30;;;;;;10350767;28;20408;-64
2023/08/26 19:39:54;;;;;;;4.10;3.30;;;21.40;93.40;;;;;;10352700;28;20404;-62
2023/08/26 19:44:54;;;;;;;4.00;3.30;;;21.40;93.40;;;;;;10358016;28;20409;-65
2023/08/26 19:49:55;;;;;;;3.53;3.10;;;21.40;93.30;;;;;;10353097;28;20418;-64
2023/08/26 19:54:56;;;;;;;3.87;3.10;;;21.40;93.30;;;;;;10358398;28;20417;-65
2023/08/26 19:59:58;;;;;;;3.50;3.20;;;21.40;93.30;;;;;;10355603;28;20454;-64
2023/08/26 20:04:59;;;;;;;3.35;3.03;;;21.40;93.30;;;;;;10353408;28;20416;-65
2023/08/26 20:09:59;;;;;;;3.75;3.10;;;21.30;93.30;;;;;;10348800;28;20396;-65
2023/08/26 20:15:03;;;;;;;3.28;2.88;;;21.40;93.30;;;;;;10335798;28;21005;-65
2023/08/26 20:20:05;;;;;;;3.10;2.80;;;21.30;93.30;;;;;;10354824;28;20407;-64
2023/08/26 20:25:06;;;;;;;3.35;3.05;;;21.30;93.30;;;;;;10355065;28;20900;-65
2023/08/26 20:30:07;;;;;;;3.95;3.00;;;21.20;93.30;;;;;;10354634;28;20412;-64
2023/08/26 20:35:10;;;;;;;3.65;2.90;;;21.20;93.30;;;;;;10335884;28;20895;-65
2023/08/26 20:40:13;;;;;;;3.28;2.72;;;21.20;93.20;;;;;;10348765;28;20768;-65
2023/08/26 20:45:14;;;;;;;3.35;2.92;;;21.20;93.20;;;;;;10339641;28;20491;-64
2023/08/26 20:50:14;;;;;;;5.10;2.97;;;21.20;93.20;;;;;;10350959;28;20640;-64
2023/08/26 20:55:15;;;;;;;5.27;3.10;;;21.10;93.30;;;;;;10352811;28;20424;-65
2023/08/26 21:00:16;;;;;;;3.53;2.90;;;21.10;93.30;;;;;;10353321;28;20505;-64
2023/08/26 21:05:17;;;;;;;3.30;2.83;;;21.10;93.20;;;;;;10350893;28;20412;-63
2023/08/26 21:10:17;;;;;;;3.17;2.83;;;21.10;93.20;;;;;;10348166;28;20474;-65
2023/08/26 21:15:18;;;;;;;3.20;2.90;;;21.00;93.10;;;;;;10355699;28;21412;-64
2023/08/26 21:20:19;;;;;;;3.40;2.90;;;21.00;93.10;;;;;;10352048;28;20877;-65
2023/08/26 21:25:19;;;;;;;3.57;2.80;;;21.00;93.10;;;;;;10352927;28;20404;-63
2023/08/26 21:30:20;;;;;;;3.93;2.97;;;21.00;93.00;;;;;;10352359;28;20409;-65
2023/08/26 21:35:21;;;;;;;3.37;2.80;;;21.00;93.10;;;;;;10348612;28;20416;-64
2023/08/26 21:40:21;;;;;;;3.20;2.90;;;21.00;93.10;;;;;;10334125;28;20407;-65
2023/08/26 21:45:22;;;;;;;3.20;2.90;;;20.90;93.00;;;;;;10341100;28;20469;-66
2023/08/26 21:50:23;;;;;;;3.53;3.10;;;20.90;93.00;;;;;;10350627;28;20418;-64
2023/08/26 21:55:24;;;;;;;3.22;2.90;;;20.90;93.10;;;;;;10361700;28;20863;-63
2023/08/26 22:00:27;;;;;;;3.72;2.83;;;20.90;93.10;;;;;;10363388;28;20471;-63
2023/08/26 22:05:32;;;;;;;2.97;2.70;;;20.80;93.10;;;;;;10361764;28;20911;-63
2023/08/26 22:10:37;;;;;;;3.60;2.90;;;20.70;93.00;;;;;;10355879;28;20444;-65
2023/08/26 22:15:38;;;;;;;3.63;2.90;;;20.80;93.00;;;;;;10358775;28;20412;-66
2023/08/26 22:20:40;;;;;;;3.43;3.07;;;20.80;93.00;;;;;;10360037;28;20689;-65
2023/08/26 22:25:40;;;;;;;3.80;2.92;;;20.80;93.00;;;;;;10361870;28;20412;-65
2023/08/26 22:30:41;;;;;;;3.23;2.93;;;20.80;93.00;;;;;;10362488;28;20764;-65
2023/08/26 22:35:42;;;;;;;3.10;2.80;;;20.80;93.00;;;;;;10361224;28;20424;-65
2023/08/26 22:40:43;;;;;;;3.20;2.83;;;20.70;93.00;;;;;;10361911;28;20408;-66
2023/08/26 22:45:47;;;;;;;3.57;3.00;;;20.70;93.00;;;;;;10361291;28;20411;-65
2023/08/26 22:50:48;;;;;;;4.18;2.95;;;20.70;93.00;;;;;;10361886;28;20827;-65
2023/08/26 22:55:48;;;;;;;3.10;2.80;;;20.70;93.00;;;;;;10362294;28;20424;-65
2023/08/26 23:00:49;;;;;;;3.80;3.00;;;20.60;93.00;;;;;;10360194;28;20404;-65
2023/08/26 23:05:58;;;;;;;3.20;2.90;;;20.60;92.90;;;;;;10363167;28;20764;-64
2023/08/26 23:11:00;;;;;;;3.30;2.83;;;20.60;93.00;;;;;;10359905;28;20400;-64
2023/08/26 23:16:01;;;;;;;3.30;3.00;;;20.60;92.90;;;;;;10361230;28;20444;-65
2023/08/26 23:21:02;;;;;;;3.07;2.77;;;20.60;92.90;;;;;;10361859;28;20513;-65
2023/08/26 23:26:03;;;;;;;3.50;3.20;;;20.50;92.90;;;;;;10362336;28;20401;-64
2023/08/26 23:31:04;;;;;;;3.30;3.00;;;20.50;92.90;;;;;;10361734;28;20936;-65
2023/08/26 23:36:04;;;;;;;3.10;2.80;;;20.50;92.90;;;;;;10345271;28;20420;-64
2023/08/26 23:41:05;;;;;;;3.70;3.00;;;20.50;92.90;;;;;;10346177;28;20905;-65
2023/08/26 23:46:06;;;;;;;3.97;3.10;;;20.50;92.90;;;;;;10347263;28;20470;-66
2023/08/26 23:51:06;;;;;;;3.58;2.97;;;20.50;92.90;;;;;;10364127;28;20749;-64
2023/08/26 23:56:07;;;;;;;4.38;3.10;;;20.40;92.80;;;;;;10371456;28;20412;-65
